createdAt,value
2023-03-30T00:46:42.040Z,50.875343
2023-03-30T00:47:42.057Z,50.875340
2023-03-30T00:48:42.019Z,50.875172
2023-03-30T00:49:42.001Z,50.875099
2023-03-30T00:50:41.987Z,50.875290
2023-03-30T00:51:41.994Z,50.875404
2023-03-30T00:52:41.980Z,50.875439
2023-03-30T00:53:41.998Z,50.875553
2023-03-30T00:54:41.965Z,50.875381
2023-03-30T00:55:41.978Z,50.875278
2023-03-30T00:56:41.987Z,50.875370
2023-03-30T00:57:41.933Z,50.875320
2023-03-30T00:58:41.949Z,50.875500
2023-03-30T00:59:41.936Z,50.875397
2023-03-30T01:00:41.913Z,50.875397
2023-03-30T01:01:42.032Z,50.875397
2023-03-30T01:02:41.961Z,50.875511
2023-03-30T01:03:41.945Z,50.875500
2023-03-30T01:04:41.873Z,50.875500
2023-03-30T01:05:41.883Z,50.875500
2023-03-30T01:06:41.894Z,50.875500
2023-03-30T01:07:41.883Z,50.875500
2023-03-30T01:08:41.821Z,50.875500
2023-03-30T01:09:41.821Z,50.875500
2023-03-30T01:10:41.814Z,50.875500
2023-03-30T01:11:41.787Z,50.875500
2023-03-30T01:12:41.828Z,50.875507
2023-03-30T01:13:41.771Z,50.875370
2023-03-30T01:14:41.781Z,50.875492
2023-03-30T01:15:41.855Z,50.875393
2023-03-30T01:16:41.779Z,50.875366
2023-03-30T01:17:41.755Z,50.875359
2023-03-30T01:18:41.712Z,50.875416
2023-03-30T01:19:41.736Z,50.875340
2023-03-30T01:20:41.737Z,50.875355
2023-03-30T01:21:41.711Z,50.875423
2023-03-30T01:22:41.735Z,50.875465
2023-03-30T01:23:41.671Z,50.875488
2023-03-30T01:24:41.673Z,50.875462
2023-03-30T01:25:41.693Z,50.875420
2023-03-30T01:26:41.661Z,50.875454
2023-03-30T01:27:41.646Z,50.875408
2023-03-30T01:28:41.627Z,50.875301
2023-03-30T01:29:41.609Z,50.875328
2023-03-30T01:30:41.619Z,50.875366
2023-03-30T01:31:41.712Z,50.875404
2023-03-30T01:32:41.660Z,50.875397
2023-03-30T01:33:41.577Z,50.875359
2023-03-30T01:34:41.587Z,50.875366
2023-03-30T01:35:41.664Z,50.875328
2023-03-30T01:36:41.613Z,50.875282
2023-03-30T01:37:41.576Z,50.875305
2023-03-30T01:38:41.522Z,50.875317
2023-03-30T01:39:41.525Z,50.875271
2023-03-30T01:40:41.492Z,50.875370
2023-03-30T01:41:41.536Z,50.875362
2023-03-30T01:42:41.512Z,50.875324
2023-03-30T01:43:41.491Z,50.875340
2023-03-30T01:44:41.497Z,50.875389
2023-03-30T01:45:41.487Z,50.875504
2023-03-30T01:46:41.531Z,50.875408
2023-03-30T01:47:41.490Z,50.875549
2023-03-30T01:48:41.427Z,50.875435
2023-03-30T01:49:41.442Z,50.875469
2023-03-30T01:50:41.413Z,50.875183
2023-03-30T01:51:41.404Z,50.875439
2023-03-30T01:52:41.465Z,50.875378
2023-03-30T01:53:41.415Z,50.875404
2023-03-30T01:54:41.376Z,50.875538
2023-03-30T01:55:41.354Z,50.875603
2023-03-30T01:56:41.402Z,50.875492
2023-03-30T01:57:41.355Z,50.875492
2023-03-30T01:58:41.348Z,50.875504
2023-03-30T01:59:41.339Z,50.875359
2023-03-30T02:00:41.318Z,50.875320
2023-03-30T02:01:41.397Z,50.875267
2023-03-30T02:02:41.350Z,50.875301
2023-03-30T02:03:41.328Z,50.875351
2023-03-30T02:04:41.280Z,50.875313
2023-03-30T02:05:41.238Z,50.875378
2023-03-30T02:06:41.259Z,50.875336
2023-03-30T02:07:41.255Z,50.875244
2023-03-30T02:08:41.240Z,50.875198
2023-03-30T02:09:41.255Z,50.875290
2023-03-30T02:10:41.228Z,50.875755
2023-03-30T02:11:41.220Z,50.875587
2023-03-30T02:12:41.189Z,50.875504
2023-03-30T02:13:41.186Z,50.875240
2023-03-30T02:14:41.175Z,50.875355
2023-03-30T02:15:41.164Z,50.875423
2023-03-30T02:16:41.238Z,50.875336
2023-03-30T02:17:41.165Z,50.875286
2023-03-30T02:18:41.115Z,50.875435
2023-03-30T02:19:41.122Z,50.875587
2023-03-30T02:20:41.122Z,50.875492
2023-03-30T02:21:41.113Z,50.875202
2023-03-30T02:22:41.094Z,50.875172
2023-03-30T02:23:41.079Z,50.875252
2023-03-30T02:24:41.076Z,50.875397
2023-03-30T02:25:41.081Z,50.875381
2023-03-30T02:26:41.040Z,50.875565
2023-03-30T02:27:41.082Z,50.875572
2023-03-30T02:28:41.098Z,50.875095
2023-03-30T02:29:41.006Z,50.875427
2023-03-30T02:30:41.010Z,50.875031
2023-03-30T02:31:41.074Z,50.875042
2023-03-30T02:32:41.031Z,50.875435
2023-03-30T02:33:40.988Z,50.875217
2023-03-30T02:34:40.974Z,50.875305
2023-03-30T02:35:40.935Z,50.875317
2023-03-30T02:36:40.953Z,50.875263
2023-03-30T02:37:40.968Z,50.875202
2023-03-30T02:38:40.928Z,50.875381
2023-03-30T02:39:40.948Z,50.875774
2023-03-30T02:40:40.915Z,50.875408
2023-03-30T02:41:40.884Z,50.874996
2023-03-30T02:42:40.918Z,50.875401
2023-03-30T02:43:40.914Z,50.874992
2023-03-30T02:44:40.887Z,50.875278
2023-03-30T02:45:40.881Z,50.875366
2023-03-30T02:46:40.849Z,50.875324
2023-03-30T02:47:40.923Z,50.875622
2023-03-30T02:48:40.826Z,50.875977
2023-03-30T02:49:40.813Z,50.875381
2023-03-30T02:50:40.814Z,50.875191
2023-03-30T02:51:40.813Z,50.875374
2023-03-30T02:52:40.840Z,50.875484
2023-03-30T02:53:40.770Z,50.875538
2023-03-30T02:54:40.777Z,50.874557
2023-03-30T02:55:40.734Z,50.874134
2023-03-30T02:56:40.801Z,50.875195
2023-03-30T02:57:40.756Z,50.875103
2023-03-30T02:58:40.736Z,50.875160
2023-03-30T02:59:40.700Z,50.874832
2023-03-30T03:00:40.690Z,50.875656
2023-03-30T03:01:40.759Z,50.875607
2023-03-30T03:02:40.768Z,50.875233
2023-03-30T03:03:40.726Z,50.875191
2023-03-30T03:04:40.644Z,50.875259
2023-03-30T03:05:40.650Z,50.875343
2023-03-30T03:06:40.669Z,50.875317
2023-03-30T03:07:40.641Z,50.875404
2023-03-30T03:08:40.623Z,50.875481
2023-03-30T03:09:40.651Z,50.875488
2023-03-30T03:10:40.663Z,50.875278
2023-03-30T03:11:40.609Z,50.875290
2023-03-30T03:12:40.591Z,50.875443
2023-03-30T03:13:40.574Z,50.875340
2023-03-30T03:14:40.568Z,50.875256
2023-03-30T03:15:40.542Z,50.875370
2023-03-30T03:16:40.625Z,50.875408
2023-03-30T03:17:40.559Z,50.875328
2023-03-30T03:18:41.619Z,50.875237
2023-03-30T03:19:40.543Z,50.875153
2023-03-30T03:20:40.503Z,50.875660
2023-03-30T03:21:40.529Z,50.875519
2023-03-30T03:22:40.516Z,50.875393
2023-03-30T03:23:40.502Z,50.875370
2023-03-30T03:24:40.447Z,50.875271
2023-03-30T03:25:40.469Z,50.875225
2023-03-30T03:26:40.444Z,50.875317
2023-03-30T03:27:40.422Z,50.875214
2023-03-30T03:28:40.453Z,50.875259
2023-03-30T03:29:40.423Z,50.875275
2023-03-30T03:30:40.482Z,50.875332
2023-03-30T03:31:40.415Z,50.875500
2023-03-30T03:32:40.396Z,50.875381
2023-03-30T03:33:40.422Z,50.875389
2023-03-30T03:34:40.399Z,50.875366
2023-03-30T03:35:40.441Z,50.875458
2023-03-30T03:36:40.392Z,50.875301
2023-03-30T03:37:40.347Z,50.875267
2023-03-30T03:38:40.373Z,50.875282
2023-03-30T03:39:40.345Z,50.875256
2023-03-30T03:40:40.321Z,50.875271
2023-03-30T03:41:40.337Z,50.875374
2023-03-30T03:42:40.293Z,50.875374
2023-03-30T03:43:40.297Z,50.875385
2023-03-30T03:44:40.268Z,50.875324
2023-03-30T03:45:40.310Z,50.875481
2023-03-30T03:46:40.259Z,50.875389
2023-03-30T03:47:40.256Z,50.875317
2023-03-30T03:48:40.278Z,50.875381
2023-03-30T03:49:40.224Z,50.875328
2023-03-30T03:50:40.198Z,50.875492
2023-03-30T03:51:40.215Z,50.875462
2023-03-30T03:52:40.180Z,50.875340
2023-03-30T03:53:40.227Z,50.875271
2023-03-30T03:54:40.168Z,50.875290
2023-03-30T03:55:40.181Z,50.875320
2023-03-30T03:56:40.173Z,50.875233
2023-03-30T03:57:40.137Z,50.875259
2023-03-30T03:58:40.133Z,50.875343
2023-03-30T03:59:40.144Z,50.875355
2023-03-30T04:00:40.259Z,50.875355
2023-03-30T04:01:40.152Z,50.875412
2023-03-30T04:02:40.264Z,50.875359
2023-03-30T04:03:40.084Z,50.875324
2023-03-30T04:04:40.143Z,50.875313
2023-03-30T04:05:40.071Z,50.875320
2023-03-30T04:06:40.066Z,50.875393
2023-03-30T04:07:40.043Z,50.875397
2023-03-30T04:08:40.036Z,50.875381
2023-03-30T04:09:40.032Z,50.875328
2023-03-30T04:10:40.017Z,50.875290
2023-03-30T04:11:40.022Z,50.875252
2023-03-30T04:12:39.997Z,50.875267
2023-03-30T04:13:39.998Z,50.875198
2023-03-30T04:14:40.013Z,50.875298
2023-03-30T04:15:39.986Z,50.875294
2023-03-30T04:16:40.040Z,50.875298
2023-03-30T04:17:39.974Z,50.875340
2023-03-30T04:18:39.935Z,50.875324
2023-03-30T04:19:39.957Z,50.875385
2023-03-30T04:20:39.956Z,50.875362
2023-03-30T04:21:39.877Z,50.875317
2023-03-30T04:22:39.877Z,50.875305
2023-03-30T04:23:39.895Z,50.875233
2023-03-30T04:24:39.878Z,50.875278
2023-03-30T04:25:39.893Z,50.875385
2023-03-30T04:26:39.903Z,50.875458
2023-03-30T04:27:39.842Z,50.875393
2023-03-30T04:28:39.839Z,50.875317
2023-03-30T04:29:39.835Z,50.875515
2023-03-30T04:30:39.829Z,50.875351
2023-03-30T04:31:39.851Z,50.875385
2023-03-30T04:32:39.842Z,50.875359
2023-03-30T04:33:39.793Z,50.875278
2023-03-30T04:34:39.807Z,50.875286
2023-03-30T04:35:39.765Z,50.875275
2023-03-30T04:36:39.742Z,50.875378
2023-03-30T04:37:40.188Z,50.875446
2023-03-30T04:38:39.734Z,50.875370
2023-03-30T04:39:39.761Z,50.875431
2023-03-30T04:40:39.725Z,50.875423
2023-03-30T04:41:39.703Z,50.875423
2023-03-30T04:42:39.709Z,50.875290
2023-03-30T04:43:39.701Z,50.875244
2023-03-30T04:44:39.677Z,50.875240
2023-03-30T04:45:39.679Z,50.875301
2023-03-30T04:46:39.688Z,50.875446
2023-03-30T04:47:39.714Z,50.875477
2023-03-30T04:48:39.636Z,50.875202
2023-03-30T04:49:39.635Z,50.875145
2023-03-30T04:50:39.649Z,50.875320
2023-03-30T04:51:39.580Z,50.875355
2023-03-30T04:52:39.588Z,50.875313
2023-03-30T04:53:39.622Z,50.875317
2023-03-30T04:54:39.614Z,50.875389
2023-03-30T04:55:39.576Z,50.875553
2023-03-30T04:56:39.549Z,50.875683
2023-03-30T04:57:39.566Z,50.875538
2023-03-30T04:58:39.527Z,50.875443
2023-03-30T04:59:39.549Z,50.875286
2023-03-30T05:00:39.538Z,50.875343
2023-03-30T05:01:39.547Z,50.875523
2023-03-30T05:02:39.605Z,50.875549
2023-03-30T05:03:39.529Z,50.875546
2023-03-30T05:04:39.500Z,50.875507
2023-03-30T05:05:39.519Z,50.875305
2023-03-30T05:06:39.450Z,50.875389
2023-03-30T05:07:39.424Z,50.875313
2023-03-30T05:08:41.293Z,50.875202
2023-03-30T05:09:40.450Z,50.874947
2023-03-30T05:10:39.441Z,50.875034
2023-03-30T05:11:39.405Z,50.874863
2023-03-30T05:12:39.403Z,50.875515
2023-03-30T05:13:39.385Z,50.875492
2023-03-30T05:14:39.360Z,50.875397
2023-03-30T05:15:39.378Z,50.875511
2023-03-30T05:16:39.391Z,50.875618
2023-03-30T05:17:39.367Z,50.875412
2023-03-30T05:18:39.367Z,50.875652
2023-03-30T05:19:39.320Z,50.875854
2023-03-30T05:20:39.346Z,50.875160
2023-03-30T05:21:39.295Z,50.875477
2023-03-30T05:22:39.292Z,50.875366
2023-03-30T05:23:39.285Z,50.875443
2023-03-30T05:24:39.275Z,50.875443
2023-03-30T05:25:39.266Z,50.875443
2023-03-30T05:26:39.274Z,50.875423
2023-03-30T05:27:39.232Z,50.875416
2023-03-30T05:28:39.231Z,50.875206
2023-03-30T05:29:39.219Z,50.875305
2023-03-30T05:30:39.232Z,50.875458
2023-03-30T05:31:39.245Z,50.875534
2023-03-30T05:32:39.219Z,50.875431
2023-03-30T05:33:39.988Z,50.875504
2023-03-30T05:34:39.151Z,50.876049
2023-03-30T05:35:39.168Z,50.877464
2023-03-30T05:36:40.153Z,50.877132
2023-03-30T05:37:39.154Z,50.876640
2023-03-30T05:38:39.134Z,50.876579
2023-03-30T05:39:39.117Z,50.876423
2023-03-30T05:40:39.109Z,50.875870
2023-03-30T05:41:39.135Z,50.875328
2023-03-30T05:42:39.071Z,50.875027
2023-03-30T05:43:39.092Z,50.875061
2023-03-30T05:44:39.070Z,50.875225
2023-03-30T05:45:39.072Z,50.875378
2023-03-30T05:46:39.128Z,50.875443
2023-03-30T05:47:39.103Z,50.875397
2023-03-30T05:48:39.019Z,50.875454
2023-03-30T05:49:39.023Z,50.875446
2023-03-30T05:50:39.039Z,50.875431
2023-03-30T05:51:39.008Z,50.875660
2023-03-30T05:52:38.989Z,50.875813
2023-03-30T05:53:38.989Z,50.875645
2023-03-30T05:54:38.967Z,50.875370
2023-03-30T05:55:38.971Z,50.875328
2023-03-30T05:56:38.947Z,50.875301
2023-03-30T05:57:38.949Z,50.875443
2023-03-30T05:58:38.930Z,50.875427
2023-03-30T05:59:38.934Z,50.875408
2023-03-30T06:00:38.945Z,50.875389
2023-03-30T06:01:38.902Z,50.875450
2023-03-30T06:02:38.898Z,50.875397
2023-03-30T06:03:39.115Z,50.875462
2023-03-30T06:04:38.938Z,50.875622
2023-03-30T06:05:38.875Z,50.875553
2023-03-30T06:06:38.875Z,50.875546
2023-03-30T06:07:38.836Z,50.875546
2023-03-30T06:08:38.845Z,50.875546
2023-03-30T06:09:38.836Z,50.875435
2023-03-30T06:10:38.830Z,50.875340
2023-03-30T06:11:38.819Z,50.875484
2023-03-30T06:12:38.819Z,50.875725
2023-03-30T06:13:38.787Z,50.875725
2023-03-30T06:14:38.755Z,50.875725
2023-03-30T06:15:38.770Z,50.875153
2023-03-30T06:16:38.855Z,50.875313
2023-03-30T06:17:38.752Z,50.875324
2023-03-30T06:18:38.766Z,50.875259
2023-03-30T06:19:38.722Z,50.875286
2023-03-30T06:20:38.735Z,50.875412
2023-03-30T06:21:38.703Z,50.875332
2023-03-30T06:22:38.705Z,50.875359
2023-03-30T06:23:38.696Z,50.875290
2023-03-30T06:24:38.672Z,50.875317
2023-03-30T06:25:38.678Z,50.875294
2023-03-30T06:26:38.634Z,50.875301
2023-03-30T06:27:38.654Z,50.875446
2023-03-30T06:28:38.623Z,50.875195
2023-03-30T06:29:38.651Z,50.875397
2023-03-30T06:30:38.625Z,50.875366
2023-03-30T06:31:38.659Z,50.875191
2023-03-30T06:32:38.632Z,50.875340
2023-03-30T06:33:40.376Z,50.874962
2023-03-30T06:34:38.587Z,50.876034
2023-03-30T06:35:38.628Z,50.876034
2023-03-30T06:36:44.934Z,50.876034
2023-03-30T06:37:39.558Z,50.876034
2023-03-30T06:38:38.545Z,50.876034
2023-03-30T06:39:38.559Z,50.876034
2023-03-30T06:40:38.526Z,50.876034
2023-03-30T06:41:38.526Z,50.875446
2023-03-30T06:42:38.521Z,50.875248
2023-03-30T06:43:38.504Z,50.875431
2023-03-30T06:44:38.485Z,50.876205
2023-03-30T06:45:38.494Z,50.875488
2023-03-30T06:46:38.454Z,50.875488
2023-03-30T06:47:38.522Z,50.876541
2023-03-30T06:48:38.463Z,50.877140
2023-03-30T06:49:38.437Z,50.875507
2023-03-30T06:50:38.449Z,50.875366
2023-03-30T06:51:38.418Z,50.875275
2023-03-30T06:52:38.415Z,50.875256
2023-03-30T06:53:38.402Z,50.875195
2023-03-30T06:54:38.383Z,50.875332
2023-03-30T06:55:38.405Z,50.875256
2023-03-30T06:56:38.376Z,50.875290
2023-03-30T06:57:38.405Z,50.875198
2023-03-30T06:58:38.368Z,50.875259
2023-03-30T06:59:38.398Z,50.875526
2023-03-30T07:00:38.355Z,50.875378
2023-03-30T07:01:38.362Z,50.875248
2023-03-30T07:02:38.369Z,50.875080
2023-03-30T07:03:38.308Z,50.875546
2023-03-30T07:04:38.575Z,50.875229
2023-03-30T07:05:38.291Z,50.875549
2023-03-30T07:06:38.276Z,50.875381
2023-03-30T07:07:38.277Z,50.875587
2023-03-30T07:08:38.260Z,50.875610
2023-03-30T07:09:38.229Z,50.875904
2023-03-30T07:10:38.255Z,50.875626
2023-03-30T07:11:38.247Z,50.875626
2023-03-30T07:12:38.222Z,50.875626
2023-03-30T07:13:38.206Z,50.876083
2023-03-30T07:14:38.212Z,50.875767
2023-03-30T07:15:38.217Z,50.875767
2023-03-30T07:16:38.222Z,50.875206
2023-03-30T07:17:38.223Z,50.875015
2023-03-30T07:18:38.170Z,50.874928
2023-03-30T07:19:38.149Z,50.875607
2023-03-30T07:20:38.142Z,50.875660
2023-03-30T07:21:38.183Z,50.875660
2023-03-30T07:22:38.107Z,50.875660
2023-03-30T07:23:38.125Z,50.875660
2023-03-30T07:24:38.112Z,50.875660
2023-03-30T07:25:38.119Z,50.875660
2023-03-30T07:26:38.103Z,50.875660
2023-03-30T07:27:38.080Z,50.875660
2023-03-30T07:28:38.051Z,50.875660
2023-03-30T07:29:38.061Z,50.875660
2023-03-30T07:32:00.232Z,50.875660
2023-03-30T07:32:01.793Z,50.875660
2023-03-30T07:33:01.848Z,50.875660
2023-03-30T07:34:01.760Z,50.875660
2023-03-30T07:35:01.760Z,50.875660
2023-03-30T07:36:01.829Z,50.875660
2023-03-30T07:37:01.828Z,50.875660
2023-03-30T07:38:03.726Z,50.875660
2023-03-30T07:39:02.732Z,50.875660
2023-03-30T07:40:01.755Z,50.875660
2023-03-30T07:41:01.880Z,50.875660
2023-03-30T07:42:02.691Z,50.875660
2023-03-30T07:43:01.732Z,50.875660
2023-03-30T07:44:01.712Z,50.875660
2023-03-30T07:45:01.659Z,50.875660
2023-03-30T07:46:01.710Z,50.875660
2023-03-30T07:47:01.675Z,50.875660
2023-03-30T07:48:01.657Z,50.875660
2023-03-30T07:49:01.625Z,50.875660
2023-03-30T07:50:01.610Z,50.875660
2023-03-30T07:51:01.872Z,50.875660
2023-03-30T07:52:01.604Z,50.875660
2023-03-30T07:53:01.593Z,50.875294
2023-03-30T07:54:01.579Z,50.875294
2023-03-30T07:55:01.583Z,50.875374
2023-03-30T07:56:01.573Z,50.875385
2023-03-30T07:57:01.624Z,50.875267
2023-03-30T07:58:01.569Z,50.875397
2023-03-30T07:59:01.936Z,50.875420
2023-03-30T08:00:02.555Z,50.875435
2023-03-30T08:01:01.755Z,50.875481
2023-03-30T08:02:01.508Z,50.875439
2023-03-30T08:03:01.648Z,50.875374
2023-03-30T08:04:01.543Z,50.875809
2023-03-30T08:05:01.649Z,50.875660
2023-03-30T08:06:01.472Z,50.875580
2023-03-30T08:07:01.476Z,50.875374
2023-03-30T08:08:01.449Z,50.875500
2023-03-30T08:09:01.432Z,50.875427
2023-03-30T08:10:01.435Z,50.875492
2023-03-30T08:11:01.492Z,50.875446
2023-03-30T08:12:01.420Z,50.875454
2023-03-30T08:13:01.388Z,50.875332
2023-03-30T08:14:01.399Z,50.875500
2023-03-30T08:15:01.359Z,50.875008
2023-03-30T08:16:01.435Z,50.875008
2023-03-30T08:17:01.391Z,50.875008
2023-03-30T08:18:01.380Z,50.875008
2023-03-30T08:19:01.331Z,50.875008
2023-03-30T08:20:01.368Z,50.875008
2023-03-30T08:21:01.469Z,50.875008
2023-03-30T08:22:01.318Z,50.875008
2023-03-30T08:23:01.333Z,50.875008
2023-03-30T08:24:01.311Z,50.875008
2023-03-30T08:25:01.295Z,50.875008
2023-03-30T08:26:01.277Z,50.875008
2023-03-30T08:27:01.295Z,50.875008
2023-03-30T08:28:01.260Z,50.875008
2023-03-30T08:29:01.241Z,50.875008
2023-03-30T08:30:01.230Z,50.875008
2023-03-30T08:31:01.243Z,50.875008
2023-03-30T08:32:01.284Z,50.875008
2023-03-30T08:34:01.198Z,50.875008
2023-03-30T08:35:01.163Z,50.875008
2023-03-30T08:36:01.250Z,50.875008
2023-03-30T08:37:01.182Z,50.875008
2023-03-30T08:38:01.182Z,50.875008
2023-03-30T08:39:02.173Z,50.875008
2023-03-30T08:40:01.141Z,50.875008
2023-03-30T08:41:01.182Z,50.875008
2023-03-30T08:42:01.175Z,50.875008
2023-03-30T08:43:01.074Z,50.875008
2023-03-30T08:44:01.083Z,50.875008
2023-03-30T08:45:01.065Z,50.875008
2023-03-30T08:46:01.074Z,50.875008
2023-03-30T08:47:01.045Z,50.875008
2023-03-30T08:48:01.066Z,50.875008
2023-03-30T08:49:01.037Z,50.875008
2023-03-30T08:50:01.008Z,50.875008
2023-03-30T08:51:01.025Z,50.875008
2023-03-30T08:52:03.051Z,50.875008
2023-03-30T08:53:02.001Z,50.875008
2023-03-30T08:54:00.963Z,50.875008
2023-03-30T08:55:00.955Z,50.875008
2023-03-30T08:56:00.937Z,50.875008
2023-03-30T08:57:00.968Z,50.875008
2023-03-30T08:58:00.923Z,50.875008
2023-03-30T08:59:00.912Z,50.875008
2023-03-30T09:00:00.923Z,50.875008
2023-03-30T09:01:00.917Z,50.875008
2023-03-30T09:02:00.953Z,50.875008
2023-03-30T09:03:00.893Z,50.875008
2023-03-30T09:04:00.855Z,50.875008
2023-03-30T09:05:00.888Z,50.875008
2023-03-30T09:06:00.827Z,50.875008
2023-03-30T09:07:00.835Z,50.875008
2023-03-30T09:08:00.806Z,50.875008
2023-03-30T09:09:00.810Z,50.875008
2023-03-30T09:10:00.798Z,50.875008
2023-03-30T09:11:00.809Z,50.875008
2023-03-30T09:12:00.791Z,50.875008
2023-03-30T09:13:00.754Z,50.875008
2023-03-30T09:14:00.752Z,50.875008
2023-03-30T09:15:00.748Z,50.875008
2023-03-30T09:16:00.739Z,50.875008
2023-03-30T09:17:00.847Z,50.875008
2023-03-30T09:18:00.743Z,50.875008
2023-03-30T09:19:00.714Z,50.875008
2023-03-30T09:20:00.697Z,50.875008
2023-03-30T09:21:00.684Z,50.875008
2023-03-30T09:22:00.681Z,50.875008
2023-03-30T09:23:00.673Z,50.875008
2023-03-30T09:24:00.683Z,50.875008
2023-03-30T09:25:00.655Z,50.875008
2023-03-30T09:26:01.403Z,50.875008
2023-03-30T09:27:01.638Z,50.875008
2023-03-30T09:28:00.617Z,50.875008
2023-03-30T09:29:00.609Z,50.875008
2023-03-30T09:30:00.597Z,50.875008
2023-03-30T09:31:00.588Z,50.875008
2023-03-30T09:32:00.657Z,50.875008
2023-03-30T09:33:00.587Z,50.875008
2023-03-30T09:34:00.550Z,50.875008
2023-03-30T09:35:00.538Z,50.875008
2023-03-30T09:36:00.597Z,50.875008
2023-03-30T09:37:00.537Z,50.875008
2023-03-30T09:38:00.516Z,50.875008
2023-03-30T09:39:00.536Z,50.875008
2023-03-30T09:40:00.497Z,50.875008
2023-03-30T09:41:00.501Z,50.875008
2023-03-30T09:42:00.496Z,50.875008
2023-03-30T09:43:00.467Z,50.875008
2023-03-30T09:44:00.462Z,50.875008
2023-03-30T09:45:00.458Z,50.875008
2023-03-30T09:46:00.478Z,50.875008
2023-03-30T09:47:00.457Z,50.875008
2023-03-30T09:48:00.464Z,50.875008
2023-03-30T09:49:00.409Z,50.875008
2023-03-30T09:50:00.408Z,50.875008
2023-03-30T09:51:00.385Z,50.875008
2023-03-30T09:52:00.378Z,50.875008
2023-03-30T09:53:00.384Z,50.875008
2023-03-30T09:54:00.369Z,50.875008
2023-03-30T09:55:00.342Z,50.875008
2023-03-30T09:56:00.384Z,50.875008
2023-03-30T09:57:00.356Z,50.875008
2023-03-30T09:58:00.323Z,50.875008
2023-03-30T09:59:00.301Z,50.875008
2023-03-30T10:00:00.302Z,50.875008
2023-03-30T10:01:00.368Z,50.875008
2023-03-30T10:02:00.433Z,50.875008
2023-03-30T10:03:00.331Z,50.875008
2023-03-30T10:04:00.408Z,50.875008
2023-03-30T10:05:00.372Z,50.875008
2023-03-30T10:06:00.238Z,50.875008
2023-03-30T10:07:06.976Z,50.875008
2023-03-30T10:08:02.214Z,50.875008
2023-03-30T10:09:00.198Z,50.875008
2023-03-30T10:10:00.813Z,50.875008
2023-03-30T10:11:00.193Z,50.875008
2023-03-30T10:12:02.873Z,50.875008
2023-03-30T10:13:00.210Z,50.875008
2023-03-30T10:14:00.203Z,50.875008
2023-03-30T10:15:00.179Z,50.875008
2023-03-30T10:16:00.222Z,50.875008
2023-03-30T10:17:00.193Z,50.875008
2023-03-30T10:18:00.184Z,50.875008
2023-03-30T10:19:00.157Z,50.875008
2023-03-30T10:20:11.028Z,50.875008
2023-03-30T10:21:02.108Z,50.875008
2023-03-30T10:22:00.152Z,50.875008
2023-03-30T10:23:00.130Z,50.875008
2023-03-30T10:24:00.131Z,50.875008
2023-03-30T10:25:00.122Z,50.875008
2023-03-30T10:26:00.050Z,50.875008
2023-03-30T10:27:00.051Z,50.875008
2023-03-30T10:28:00.043Z,50.875008
2023-03-30T10:29:01.057Z,50.875008
2023-03-30T10:30:00.043Z,50.875008
2023-03-30T10:31:00.024Z,50.875008
2023-03-30T10:32:00.067Z,50.875008
2023-03-30T10:33:00.121Z,50.875008
2023-03-30T10:33:59.999Z,50.875008
2023-03-30T10:34:59.987Z,50.875008
2023-03-30T10:35:59.999Z,50.875008
2023-03-30T10:36:59.914Z,50.875008
2023-03-30T10:37:59.933Z,50.875008
2023-03-30T10:38:59.923Z,50.875008
2023-03-30T10:39:59.911Z,50.875008
2023-03-30T10:40:59.886Z,50.875008
2023-03-30T10:42:00.214Z,50.875008
2023-03-30T10:43:00.862Z,50.875008
2023-03-30T10:43:59.847Z,50.875008
2023-03-30T10:44:59.824Z,50.875008
2023-03-30T10:46:08.956Z,50.875008
2023-03-30T10:47:01.848Z,50.875008
2023-03-30T10:48:00.427Z,50.875008
2023-03-30T10:48:59.792Z,50.875008
2023-03-30T10:49:59.792Z,50.875008
2023-03-30T10:50:59.781Z,50.875008
2023-03-30T10:51:59.757Z,50.875008
2023-03-30T10:52:59.931Z,50.875008
2023-03-30T10:53:59.920Z,50.875008
2023-03-30T10:55:00.735Z,50.875008
2023-03-30T10:55:59.717Z,50.875008
2023-03-30T10:56:59.738Z,50.875008
2023-03-30T10:57:59.717Z,50.875008
2023-03-30T10:58:59.687Z,50.875008
2023-03-30T11:00:00.337Z,50.875008
2023-03-30T11:01:00.765Z,50.875008
2023-03-30T11:01:59.656Z,50.875008
2023-03-30T11:02:59.687Z,50.875008
2023-03-30T11:04:06.605Z,50.875008
2023-03-30T11:05:01.642Z,50.875008
2023-03-30T11:05:59.618Z,50.875008
2023-03-30T11:06:59.652Z,50.875008
2023-03-30T11:07:59.637Z,50.875008
2023-03-30T11:08:59.620Z,50.875008
2023-03-30T11:09:59.600Z,50.875008
2023-03-30T11:10:59.583Z,50.875008
2023-03-30T11:11:59.578Z,50.875008
2023-03-30T11:12:59.548Z,50.875008
2023-03-30T11:13:59.551Z,50.875008
2023-03-30T11:14:59.528Z,50.875008
2023-03-30T11:15:59.530Z,50.875008
2023-03-30T11:16:59.552Z,50.875008
2023-03-30T11:17:59.521Z,50.875008
2023-03-30T11:18:59.520Z,50.875008
2023-03-30T11:19:59.513Z,50.875008
2023-03-30T11:20:59.467Z,50.875008
2023-03-30T11:21:59.454Z,50.875008
2023-03-30T11:22:59.449Z,50.875008
2023-03-30T11:23:59.438Z,50.875008
2023-03-30T11:24:59.459Z,50.875008
2023-03-30T11:25:59.412Z,50.875008
2023-03-30T11:26:59.398Z,50.875008
2023-03-30T11:27:59.396Z,50.875008
2023-03-30T11:28:59.386Z,50.875008
2023-03-30T11:29:59.368Z,50.875008
2023-03-30T11:30:59.358Z,50.875008
2023-03-30T11:31:59.384Z,50.875008
2023-03-30T11:32:59.382Z,50.875008
2023-03-30T11:33:59.350Z,50.875008
2023-03-30T11:34:59.329Z,50.875008
2023-03-30T11:35:59.351Z,50.875008
2023-03-30T11:36:59.302Z,50.875008
2023-03-30T11:37:59.289Z,50.875008
2023-03-30T11:38:59.290Z,50.875008
2023-03-30T11:39:59.271Z,50.875008
2023-03-30T11:40:59.253Z,50.875008
2023-03-30T11:41:59.268Z,50.875008
2023-03-30T12:15:13.915Z,50.874947
2023-03-30T12:16:14.005Z,50.875126
2023-03-30T12:17:13.924Z,50.875244
2023-03-30T12:18:13.892Z,50.875298
2023-03-30T12:19:13.906Z,50.875355
2023-03-30T12:20:14.021Z,50.875320
2023-03-30T12:21:14.880Z,50.875221
2023-03-30T12:22:13.823Z,50.875298
2023-03-30T12:23:13.825Z,50.875286
2023-03-30T12:24:13.825Z,50.875347
2023-03-30T12:25:13.798Z,50.875393
2023-03-30T12:26:13.782Z,50.875393
2023-03-30T12:27:13.784Z,50.875393
2023-03-30T12:28:13.775Z,50.875393
2023-03-30T12:29:56.537Z,50.875393
2023-03-30T12:30:15.742Z,50.875393
2023-03-30T12:31:14.764Z,50.875393
2023-03-30T12:32:13.723Z,50.875393
2023-03-30T12:33:13.742Z,50.875393
2023-03-30T12:34:13.726Z,50.875393
2023-03-30T12:35:13.714Z,50.875393
2023-03-30T12:36:13.694Z,50.875393
2023-03-30T12:37:13.700Z,50.875393
2023-03-30T12:38:13.675Z,50.875393
2023-03-30T12:39:13.682Z,50.875393
2023-03-30T12:40:13.682Z,50.875393
2023-03-30T12:41:13.647Z,50.875393
2023-03-30T12:42:13.650Z,50.875393
2023-03-30T12:43:13.631Z,50.875393
2023-03-30T12:44:13.616Z,50.875393